sensor_id;sensor_type;location;lat;lon;timestamp;P1;durP1;ratioP1;P2;durP2;ratioP2
33413;SDS011;60055;41.884;12.534;2024-02-21T00:01:27;11.48;;;6.93;;
33413;SDS011;60055;41.884;12.534;2024-02-21T00:03:53;11.55;;;7.00;;
33413;SDS011;60055;41.884;12.534;2024-02-21T00:06:18;12.70;;;6.90;;
33413;SDS011;60055;41.884;12.534;2024-02-21T00:08:44;10.00;;;6.82;;
33413;SDS011;60055;41.884;12.534;2024-02-21T00:11:09;11.88;;;7.00;;
33413;SDS011;60055;41.884;12.534;2024-02-21T00:13:34;10.77;;;6.78;;
33413;SDS011;60055;41.884;12.534;2024-02-21T00:16:00;12.30;;;7.22;;
33413;SDS011;60055;41.884;12.534;2024-02-21T00:18:26;12.57;;;7.55;;
33413;SDS011;60055;41.884;12.534;2024-02-21T00:20:52;17.33;;;7.93;;
33413;SDS011;60055;41.884;12.534;2024-02-21T00:23:17;11.98;;;7.28;;
33413;SDS011;60055;41.884;12.534;2024-02-21T00:25:43;16.70;;;8.80;;
33413;SDS011;60055;41.884;12.534;2024-02-21T00:28:08;12.82;;;7.78;;
33413;SDS011;60055;41.884;12.534;2024-02-21T00:30:34;12.68;;;8.13;;
33413;SDS011;60055;41.884;12.534;2024-02-21T00:32:59;13.43;;;8.27;;
33413;SDS011;60055;41.884;12.534;2024-02-21T00:35:25;12.38;;;7.70;;
33413;SDS011;60055;41.884;12.534;2024-02-21T00:37:51;13.48;;;8.27;;
33413;SDS011;60055;41.884;12.534;2024-02-21T00:40:17;11.02;;;7.72;;
33413;SDS011;60055;41.884;12.534;2024-02-21T00:42:45;15.10;;;7.63;;
33413;SDS011;60055;41.884;12.534;2024-02-21T00:45:11;13.20;;;7.75;;
33413;SDS011;60055;41.884;12.534;2024-02-21T00:47:36;10.57;;;7.10;;
33413;SDS011;60055;41.884;12.534;2024-02-21T00:50:02;11.45;;;7.50;;
33413;SDS011;60055;41.884;12.534;2024-02-21T00:52:27;13.00;;;8.00;;
33413;SDS011;60055;41.884;12.534;2024-02-21T00:54:53;11.45;;;7.03;;
33413;SDS011;60055;41.884;12.534;2024-02-21T00:57:18;12.48;;;7.68;;
33413;SDS011;60055;41.884;12.534;2024-02-21T00:59:44;13.07;;;7.68;;
33413;SDS011;60055;41.884;12.534;2024-02-21T01:02:09;11.55;;;7.32;;
33413;SDS011;60055;41.884;12.534;2024-02-21T01:04:35;11.45;;;6.95;;
33413;SDS011;60055;41.884;12.534;2024-02-21T01:07:01;13.23;;;7.05;;
33413;SDS011;60055;41.884;12.534;2024-02-21T01:09:27;10.38;;;6.80;;
33413;SDS011;60055;41.884;12.534;2024-02-21T01:11:52;9.82;;;6.43;;
33413;SDS011;60055;41.884;12.534;2024-02-21T01:14:18;10.32;;;6.72;;
33413;SDS011;60055;41.884;12.534;2024-02-21T01:16:43;12.98;;;6.55;;
33413;SDS011;60055;41.884;12.534;2024-02-21T01:19:09;10.52;;;6.57;;
33413;SDS011;60055;41.884;12.534;2024-02-21T01:21:34;9.57;;;6.30;;
33413;SDS011;60055;41.884;12.534;2024-02-21T01:23:59;10.30;;;6.20;;
33413;SDS011;60055;41.884;12.534;2024-02-21T01:26:25;9.02;;;5.85;;
33413;SDS011;60055;41.884;12.534;2024-02-21T01:28:50;9.02;;;6.00;;
33413;SDS011;60055;41.884;12.534;2024-02-21T01:31:17;8.02;;;5.60;;
33413;SDS011;60055;41.884;12.534;2024-02-21T01:33:42;10.02;;;6.20;;
33413;SDS011;60055;41.884;12.534;2024-02-21T01:36:08;14.20;;;6.50;;
33413;SDS011;60055;41.884;12.534;2024-02-21T01:38:34;8.45;;;5.53;;
33413;SDS011;60055;41.884;12.534;2024-02-21T01:40:59;13.27;;;6.20;;
33413;SDS011;60055;41.884;12.534;2024-02-21T01:43:25;9.45;;;6.10;;
33413;SDS011;60055;41.884;12.534;2024-02-21T01:45:55;8.18;;;5.80;;
33413;SDS011;60055;41.884;12.534;2024-02-21T01:48:24;9.15;;;5.38;;
33413;SDS011;60055;41.884;12.534;2024-02-21T01:50:50;8.52;;;5.65;;
33413;SDS011;60055;41.884;12.534;2024-02-21T01:53:18;8.65;;;5.35;;
33413;SDS011;60055;41.884;12.534;2024-02-21T01:55:46;7.43;;;5.18;;
33413;SDS011;60055;41.884;12.534;2024-02-21T01:58:15;11.55;;;5.88;;
33413;SDS011;60055;41.884;12.534;2024-02-21T02:00:41;10.15;;;6.13;;
33413;SDS011;60055;41.884;12.534;2024-02-21T02:03:09;8.00;;;5.13;;
33413;SDS011;60055;41.884;12.534;2024-02-21T02:05:41;8.98;;;5.57;;
33413;SDS011;60055;41.884;12.534;2024-02-21T02:08:14;11.93;;;6.00;;
33413;SDS011;60055;41.884;12.534;2024-02-21T02:10:40;10.90;;;5.25;;
33413;SDS011;60055;41.884;12.534;2024-02-21T02:13:06;7.57;;;4.68;;
33413;SDS011;60055;41.884;12.534;2024-02-21T02:15:41;8.25;;;5.13;;
33413;SDS011;60055;41.884;12.534;2024-02-21T02:18:08;7.57;;;5.05;;
33413;SDS011;60055;41.884;12.534;2024-02-21T02:20:35;8.07;;;4.63;;
33413;SDS011;60055;41.884;12.534;2024-02-21T02:23:07;6.70;;;4.47;;
33413;SDS011;60055;41.884;12.534;2024-02-21T02:25:36;6.97;;;4.25;;
33413;SDS011;60055;41.884;12.534;2024-02-21T02:28:02;7.15;;;4.72;;
33413;SDS011;60055;41.884;12.534;2024-02-21T02:30:31;7.47;;;4.70;;
33413;SDS011;60055;41.884;12.534;2024-02-21T02:32:57;8.40;;;4.60;;
33413;SDS011;60055;41.884;12.534;2024-02-21T02:35:23;8.00;;;4.63;;
33413;SDS011;60055;41.884;12.534;2024-02-21T02:37:49;7.60;;;4.90;;
33413;SDS011;60055;41.884;12.534;2024-02-21T02:40:15;6.30;;;4.53;;
33413;SDS011;60055;41.884;12.534;2024-02-21T02:42:40;7.60;;;4.60;;
33413;SDS011;60055;41.884;12.534;2024-02-21T02:45:06;8.63;;;4.20;;
33413;SDS011;60055;41.884;12.534;2024-02-21T02:47:32;6.07;;;4.15;;
33413;SDS011;60055;41.884;12.534;2024-02-21T02:49:59;6.20;;;3.97;;
33413;SDS011;60055;41.884;12.534;2024-02-21T02:52:25;6.78;;;4.20;;
33413;SDS011;60055;41.884;12.534;2024-02-21T02:54:50;6.45;;;4.00;;
33413;SDS011;60055;41.884;12.534;2024-02-21T02:57:17;6.95;;;4.10;;
33413;SDS011;60055;41.884;12.534;2024-02-21T02:59:46;7.78;;;4.65;;
33413;SDS011;60055;41.884;12.534;2024-02-21T03:02:18;6.35;;;4.20;;
33413;SDS011;60055;41.884;12.534;2024-02-21T03:04:43;7.03;;;4.43;;
33413;SDS011;60055;41.884;12.534;2024-02-21T03:07:09;7.25;;;3.67;;
33413;SDS011;60055;41.884;12.534;2024-02-21T03:09:36;6.30;;;3.95;;
33413;SDS011;60055;41.884;12.534;2024-02-21T03:12:03;6.05;;;3.90;;
33413;SDS011;60055;41.884;12.534;2024-02-21T03:14:28;7.57;;;3.85;;
33413;SDS011;60055;41.884;12.534;2024-02-21T03:16:54;6.07;;;3.63;;
33413;SDS011;60055;41.884;12.534;2024-02-21T03:19:20;6.53;;;4.13;;
33413;SDS011;60055;41.884;12.534;2024-02-21T03:21:45;5.82;;;4.03;;
33413;SDS011;60055;41.884;12.534;2024-02-21T03:24:11;7.03;;;3.85;;
33413;SDS011;60055;41.884;12.534;2024-02-21T03:26:36;7.00;;;4.43;;
33413;SDS011;60055;41.884;12.534;2024-02-21T03:29:03;7.72;;;4.32;;
33413;SDS011;60055;41.884;12.534;2024-02-21T03:31:28;7.55;;;4.03;;
33413;SDS011;60055;41.884;12.534;2024-02-21T03:33:54;7.15;;;4.20;;
33413;SDS011;60055;41.884;12.534;2024-02-21T03:36:20;6.75;;;4.28;;
33413;SDS011;60055;41.884;12.534;2024-02-21T03:38:45;7.30;;;4.32;;
33413;SDS011;60055;41.884;12.534;2024-02-21T03:41:11;8.90;;;4.43;;
33413;SDS011;60055;41.884;12.534;2024-02-21T03:43:39;6.18;;;4.07;;
33413;SDS011;60055;41.884;12.534;2024-02-21T03:46:04;7.07;;;3.97;;
33413;SDS011;60055;41.884;12.534;2024-02-21T03:48:30;7.40;;;4.13;;
33413;SDS011;60055;41.884;12.534;2024-02-21T03:50:56;6.65;;;4.00;;
33413;SDS011;60055;41.884;12.534;2024-02-21T03:53:21;11.32;;;3.78;;
33413;SDS011;60055;41.884;12.534;2024-02-21T03:55:47;6.78;;;4.18;;
33413;SDS011;60055;41.884;12.534;2024-02-21T03:58:12;7.38;;;4.00;;
33413;SDS011;60055;41.884;12.534;2024-02-21T04:00:38;8.27;;;5.25;;
33413;SDS011;60055;41.884;12.534;2024-02-21T04:03:04;8.45;;;4.28;;
33413;SDS011;60055;41.884;12.534;2024-02-21T04:05:29;7.93;;;4.53;;
33413;SDS011;60055;41.884;12.534;2024-02-21T04:07:55;8.30;;;4.13;;
33413;SDS011;60055;41.884;12.534;2024-02-21T04:10:20;10.15;;;4.65;;
33413;SDS011;60055;41.884;12.534;2024-02-21T04:12:46;8.45;;;4.43;;
33413;SDS011;60055;41.884;12.534;2024-02-21T04:15:11;7.18;;;4.30;;
33413;SDS011;60055;41.884;12.534;2024-02-21T04:17:37;7.50;;;4.60;;
33413;SDS011;60055;41.884;12.534;2024-02-21T04:20:03;8.88;;;4.97;;
33413;SDS011;60055;41.884;12.534;2024-02-21T04:22:30;9.15;;;4.72;;
33413;SDS011;60055;41.884;12.534;2024-02-21T04:24:59;10.05;;;4.35;;
33413;SDS011;60055;41.884;12.534;2024-02-21T04:27:25;9.40;;;4.45;;
33413;SDS011;60055;41.884;12.534;2024-02-21T04:29:50;6.78;;;3.97;;
33413;SDS011;60055;41.884;12.534;2024-02-21T04:32:16;7.97;;;4.95;;
33413;SDS011;60055;41.884;12.534;2024-02-21T04:34:41;7.00;;;4.28;;
33413;SDS011;60055;41.884;12.534;2024-02-21T04:37:07;6.70;;;4.05;;
33413;SDS011;60055;41.884;12.534;2024-02-21T04:39:32;8.13;;;4.13;;
33413;SDS011;60055;41.884;12.534;2024-02-21T04:41:58;6.10;;;3.75;;
33413;SDS011;60055;41.884;12.534;2024-02-21T04:44:23;6.32;;;3.60;;
33413;SDS011;60055;41.884;12.534;2024-02-21T04:46:49;6.22;;;3.42;;
33413;SDS011;60055;41.884;12.534;2024-02-21T04:49:14;5.00;;;3.40;;
33413;SDS011;60055;41.884;12.534;2024-02-21T04:51:42;5.57;;;3.33;;
33413;SDS011;60055;41.884;12.534;2024-02-21T04:54:08;5.35;;;3.08;;
33413;SDS011;60055;41.884;12.534;2024-02-21T04:56:34;4.38;;;3.13;;
33413;SDS011;60055;41.884;12.534;2024-02-21T04:58:59;7.57;;;3.35;;
33413;SDS011;60055;41.884;12.534;2024-02-21T05:01:25;4.97;;;3.42;;
33413;SDS011;60055;41.884;12.534;2024-02-21T05:03:50;8.27;;;3.20;;
33413;SDS011;60055;41.884;12.534;2024-02-21T05:06:16;7.43;;;3.20;;
33413;SDS011;60055;41.884;12.534;2024-02-21T05:08:42;7.38;;;3.30;;
33413;SDS011;60055;41.884;12.534;2024-02-21T05:11:07;5.45;;;3.65;;
33413;SDS011;60055;41.884;12.534;2024-02-21T05:13:33;6.30;;;3.83;;
33413;SDS011;60055;41.884;12.534;2024-02-21T05:15:58;5.57;;;3.55;;
33413;SDS011;60055;41.884;12.534;2024-02-21T05:18:26;5.10;;;3.60;;
33413;SDS011;60055;41.884;12.534;2024-02-21T05:20:53;6.55;;;3.38;;
33413;SDS011;60055;41.884;12.534;2024-02-21T05:23:18;6.53;;;3.50;;
33413;SDS011;60055;41.884;12.534;2024-02-21T05:25:44;5.60;;;3.30;;
33413;SDS011;60055;41.884;12.534;2024-02-21T05:28:09;5.82;;;3.50;;
33413;SDS011;60055;41.884;12.534;2024-02-21T05:30:35;5.32;;;3.40;;
33413;SDS011;60055;41.884;12.534;2024-02-21T05:33:07;5.50;;;3.45;;
33413;SDS011;60055;41.884;12.534;2024-02-21T05:35:33;5.82;;;3.55;;
33413;SDS011;60055;41.884;12.534;2024-02-21T05:37:59;7.07;;;3.33;;
33413;SDS011;60055;41.884;12.534;2024-02-21T05:40:25;6.70;;;4.22;;
33413;SDS011;60055;41.884;12.534;2024-02-21T05:42:50;6.10;;;3.67;;
33413;SDS011;60055;41.884;12.534;2024-02-21T05:45:17;5.90;;;3.55;;
33413;SDS011;60055;41.884;12.534;2024-02-21T05:47:43;7.50;;;3.70;;
33413;SDS011;60055;41.884;12.534;2024-02-21T05:50:09;7.72;;;3.30;;
33413;SDS011;60055;41.884;12.534;2024-02-21T05:52:35;6.97;;;3.55;;
33413;SDS011;60055;41.884;12.534;2024-02-21T05:55:00;8.18;;;3.92;;
33413;SDS011;60055;41.884;12.534;2024-02-21T05:57:26;6.97;;;3.38;;
33413;SDS011;60055;41.884;12.534;2024-02-21T05:59:51;5.57;;;3.63;;
33413;SDS011;60055;41.884;12.534;2024-02-21T06:02:16;7.47;;;3.70;;
33413;SDS011;60055;41.884;12.534;2024-02-21T06:04:42;4.85;;;3.30;;
33413;SDS011;60055;41.884;12.534;2024-02-21T06:07:11;6.18;;;3.33;;
33413;SDS011;60055;41.884;12.534;2024-02-21T06:09:36;8.77;;;3.83;;
33413;SDS011;60055;41.884;12.534;2024-02-21T06:12:02;7.18;;;3.28;;
33413;SDS011;60055;41.884;12.534;2024-02-21T06:14:28;6.47;;;3.53;;
33413;SDS011;60055;41.884;12.534;2024-02-21T06:16:53;7.50;;;4.53;;
33413;SDS011;60055;41.884;12.534;2024-02-21T06:19:19;8.23;;;3.80;;
33413;SDS011;60055;41.884;12.534;2024-02-21T06:21:44;5.63;;;3.65;;
33413;SDS011;60055;41.884;12.534;2024-02-21T06:24:10;7.95;;;3.58;;
33413;SDS011;60055;41.884;12.534;2024-02-21T06:26:37;6.00;;;3.33;;
33413;SDS011;60055;41.884;12.534;2024-02-21T06:29:02;5.57;;;3.33;;
33413;SDS011;60055;41.884;12.534;2024-02-21T06:31:28;5.45;;;3.45;;
33413;SDS011;60055;41.884;12.534;2024-02-21T06:33:54;7.15;;;3.70;;
33413;SDS011;60055;41.884;12.534;2024-02-21T06:36:19;5.95;;;3.50;;
33413;SDS011;60055;41.884;12.534;2024-02-21T06:38:45;8.60;;;3.60;;
33413;SDS011;60055;41.884;12.534;2024-02-21T06:41:17;8.40;;;3.67;;
33413;SDS011;60055;41.884;12.534;2024-02-21T06:43:44;6.63;;;4.18;;
33413;SDS011;60055;41.884;12.534;2024-02-21T06:46:11;8.88;;;3.80;;
33413;SDS011;60055;41.884;12.534;2024-02-21T06:48:37;9.32;;;3.90;;
33413;SDS011;60055;41.884;12.534;2024-02-21T06:51:02;7.65;;;4.20;;
33413;SDS011;60055;41.884;12.534;2024-02-21T06:53:28;6.25;;;4.10;;
33413;SDS011;60055;41.884;12.534;2024-02-21T06:55:54;8.48;;;3.97;;
33413;SDS011;60055;41.884;12.534;2024-02-21T06:58:19;8.48;;;4.32;;
33413;SDS011;60055;41.884;12.534;2024-02-21T07:00:45;5.60;;;3.67;;
33413;SDS011;60055;41.884;12.534;2024-02-21T07:03:10;8.35;;;4.20;;
33413;SDS011;60055;41.884;12.534;2024-02-21T07:05:36;9.32;;;3.78;;
33413;SDS011;60055;41.884;12.534;2024-02-21T07:08:04;5.82;;;3.67;;
33413;SDS011;60055;41.884;12.534;2024-02-21T07:10:30;6.97;;;3.53;;
33413;SDS011;60055;41.884;12.534;2024-02-21T07:12:58;6.20;;;3.80;;
33413;SDS011;60055;41.884;12.534;2024-02-21T07:15:25;8.35;;;4.25;;
33413;SDS011;60055;41.884;12.534;2024-02-21T07:18:00;12.27;;;3.65;;
33413;SDS011;60055;41.884;12.534;2024-02-21T07:20:26;11.63;;;3.92;;
33413;SDS011;60055;41.884;12.534;2024-02-21T07:22:52;11.95;;;3.33;;
33413;SDS011;60055;41.884;12.534;2024-02-21T07:25:18;6.28;;;4.00;;
33413;SDS011;60055;41.884;12.534;2024-02-21T07:27:44;9.45;;;3.55;;
33413;SDS011;60055;41.884;12.534;2024-02-21T07:30:10;10.05;;;3.45;;
33413;SDS011;60055;41.884;12.534;2024-02-21T07:32:36;8.52;;;4.10;;
33413;SDS011;60055;41.884;12.534;2024-02-21T07:35:01;7.68;;;3.85;;
33413;SDS011;60055;41.884;12.534;2024-02-21T07:37:27;9.43;;;4.10;;
33413;SDS011;60055;41.884;12.534;2024-02-21T07:39:52;10.48;;;4.07;;
33413;SDS011;60055;41.884;12.534;2024-02-21T07:42:18;8.18;;;4.30;;
33413;SDS011;60055;41.884;12.534;2024-02-21T07:44:43;13.85;;;4.18;;
33413;SDS011;60055;41.884;12.534;2024-02-21T07:47:09;9.93;;;3.95;;
33413;SDS011;60055;41.884;12.534;2024-02-21T07:49:40;9.85;;;4.00;;
33413;SDS011;60055;41.884;12.534;2024-02-21T07:52:07;8.35;;;4.10;;
33413;SDS011;60055;41.884;12.534;2024-02-21T07:54:32;9.50;;;4.05;;
33413;SDS011;60055;41.884;12.534;2024-02-21T07:56:58;9.15;;;4.00;;
33413;SDS011;60055;41.884;12.534;2024-02-21T07:59:23;7.65;;;4.00;;
33413;SDS011;60055;41.884;12.534;2024-02-21T08:01:49;6.57;;;3.97;;
33413;SDS011;60055;41.884;12.534;2024-02-21T08:04:14;6.55;;;3.90;;
33413;SDS011;60055;41.884;12.534;2024-02-21T08:06:39;7.55;;;3.95;;
33413;SDS011;60055;41.884;12.534;2024-02-21T08:09:05;7.47;;;4.40;;
33413;SDS011;60055;41.884;12.534;2024-02-21T08:11:30;8.63;;;4.38;;
33413;SDS011;60055;41.884;12.534;2024-02-21T08:13:56;9.20;;;4.43;;
33413;SDS011;60055;41.884;12.534;2024-02-21T08:16:22;11.55;;;4.60;;
33413;SDS011;60055;41.884;12.534;2024-02-21T08:18:47;9.68;;;5.00;;
33413;SDS011;60055;41.884;12.534;2024-02-21T08:21:13;8.13;;;4.78;;
33413;SDS011;60055;41.884;12.534;2024-02-21T08:23:38;9.27;;;4.20;;
33413;SDS011;60055;41.884;12.534;2024-02-21T08:26:03;9.13;;;4.60;;
33413;SDS011;60055;41.884;12.534;2024-02-21T08:28:29;6.32;;;4.05;;
33413;SDS011;60055;41.884;12.534;2024-02-21T08:30:55;10.65;;;4.88;;
33413;SDS011;60055;41.884;12.534;2024-02-21T08:33:20;8.00;;;4.35;;
33413;SDS011;60055;41.884;12.534;2024-02-21T08:35:50;11.15;;;4.88;;
33413;SDS011;60055;41.884;12.534;2024-02-21T08:38:16;9.80;;;4.00;;
33413;SDS011;60055;41.884;12.534;2024-02-21T08:40:41;8.95;;;4.07;;
33413;SDS011;60055;41.884;12.534;2024-02-21T08:43:07;8.18;;;4.10;;
33413;SDS011;60055;41.884;12.534;2024-02-21T08:45:32;5.85;;;3.20;;
33413;SDS011;60055;41.884;12.534;2024-02-21T08:47:57;5.78;;;3.50;;
33413;SDS011;60055;41.884;12.534;2024-02-21T08:50:23;6.85;;;3.42;;
33413;SDS011;60055;41.884;12.534;2024-02-21T08:52:48;6.22;;;3.28;;
33413;SDS011;60055;41.884;12.534;2024-02-21T08:55:14;7.15;;;3.40;;
33413;SDS011;60055;41.884;12.534;2024-02-21T08:57:43;7.00;;;3.80;;
33413;SDS011;60055;41.884;12.534;2024-02-21T09:00:08;9.23;;;4.00;;
33413;SDS011;60055;41.884;12.534;2024-02-21T09:02:41;10.60;;;6.07;;
33413;SDS011;60055;41.884;12.534;2024-02-21T09:05:10;7.88;;;3.50;;
33413;SDS011;60055;41.884;12.534;2024-02-21T09:07:36;5.53;;;3.15;;
33413;SDS011;60055;41.884;12.534;2024-02-21T09:10:01;5.90;;;3.55;;
33413;SDS011;60055;41.884;12.534;2024-02-21T09:12:27;7.25;;;3.17;;
33413;SDS011;60055;41.884;12.534;2024-02-21T09:14:53;5.20;;;3.33;;
33413;SDS011;60055;41.884;12.534;2024-02-21T09:17:18;6.57;;;3.08;;
33413;SDS011;60055;41.884;12.534;2024-02-21T09:19:45;6.65;;;3.35;;
33413;SDS011;60055;41.884;12.534;2024-02-21T09:22:12;6.88;;;3.45;;
33413;SDS011;60055;41.884;12.534;2024-02-21T09:24:37;7.78;;;3.08;;
33413;SDS011;60055;41.884;12.534;2024-02-21T09:27:03;5.38;;;2.97;;
33413;SDS011;60055;41.884;12.534;2024-02-21T09:29:28;4.93;;;2.70;;
33413;SDS011;60055;41.884;12.534;2024-02-21T09:31:53;4.70;;;2.70;;
33413;SDS011;60055;41.884;12.534;2024-02-21T09:34:19;3.55;;;2.45;;
33413;SDS011;60055;41.884;12.534;2024-02-21T09:36:44;4.20;;;2.72;;
33413;SDS011;60055;41.884;12.534;2024-02-21T09:39:10;8.20;;;3.42;;
33413;SDS011;60055;41.884;12.534;2024-02-21T09:41:39;11.90;;;5.45;;
33413;SDS011;60055;41.884;12.534;2024-02-21T09:44:10;5.57;;;3.28;;
33413;SDS011;60055;41.884;12.534;2024-02-21T09:49:12;7.60;;;3.10;;
33413;SDS011;60055;41.884;12.534;2024-02-21T09:51:49;9.45;;;3.25;;
33413;SDS011;60055;41.884;12.534;2024-02-21T09:54:16;7.00;;;3.42;;
33413;SDS011;60055;41.884;12.534;2024-02-21T09:56:46;7.28;;;3.33;;
33413;SDS011;60055;41.884;12.534;2024-02-21T09:59:12;5.40;;;2.85;;
33413;SDS011;60055;41.884;12.534;2024-02-21T10:01:41;7.03;;;3.00;;
33413;SDS011;60055;41.884;12.534;2024-02-21T10:04:07;7.88;;;3.20;;
33413;SDS011;60055;41.884;12.534;2024-02-21T10:06:33;4.78;;;2.88;;
33413;SDS011;60055;41.884;12.534;2024-02-21T10:08:59;7.05;;;2.80;;
33413;SDS011;60055;41.884;12.534;2024-02-21T10:11:25;6.68;;;2.83;;
33413;SDS011;60055;41.884;12.534;2024-02-21T10:13:51;3.20;;;2.00;;
33413;SDS011;60055;41.884;12.534;2024-02-21T10:16:16;6.53;;;2.65;;
33413;SDS011;60055;41.884;12.534;2024-02-21T10:18:42;6.18;;;3.22;;
33413;SDS011;60055;41.884;12.534;2024-02-21T10:21:08;8.07;;;3.08;;
33413;SDS011;60055;41.884;12.534;2024-02-21T10:23:51;10.30;;;3.70;;
33413;SDS011;60055;41.884;12.534;2024-02-21T10:26:19;5.00;;;2.80;;
33413;SDS011;60055;41.884;12.534;2024-02-21T10:28:46;5.38;;;2.95;;
33413;SDS011;60055;41.884;12.534;2024-02-21T10:31:25;6.72;;;3.00;;
33413;SDS011;60055;41.884;12.534;2024-02-21T10:33:59;6.10;;;3.08;;
33413;SDS011;60055;41.884;12.534;2024-02-21T10:36:28;5.97;;;3.60;;
33413;SDS011;60055;41.884;12.534;2024-02-21T10:38:53;4.60;;;3.10;;
33413;SDS011;60055;41.884;12.534;2024-02-21T10:41:19;4.95;;;2.78;;
33413;SDS011;60055;41.884;12.534;2024-02-21T10:43:55;6.88;;;2.80;;
33413;SDS011;60055;41.884;12.534;2024-02-21T10:46:22;6.00;;;2.90;;
33413;SDS011;60055;41.884;12.534;2024-02-21T10:48:52;7.70;;;2.63;;
33413;SDS011;60055;41.884;12.534;2024-02-21T10:51:27;3.63;;;2.25;;
33413;SDS011;60055;41.884;12.534;2024-02-21T10:54:02;7.78;;;2.70;;
33413;SDS011;60055;41.884;12.534;2024-02-21T10:56:38;5.85;;;2.03;;
33413;SDS011;60055;41.884;12.534;2024-02-21T10:59:06;6.47;;;2.25;;
33413;SDS011;60055;41.884;12.534;2024-02-21T11:01:33;4.43;;;1.88;;
33413;SDS011;60055;41.884;12.534;2024-02-21T11:04:04;4.82;;;1.63;;
33413;SDS011;60055;41.884;12.534;2024-02-21T11:06:32;4.57;;;1.65;;
33413;SDS011;60055;41.884;12.534;2024-02-21T11:09:08;5.30;;;1.80;;
33413;SDS011;60055;41.884;12.534;2024-02-21T11:14:08;6.57;;;1.88;;
33413;SDS011;60055;41.884;12.534;2024-02-21T11:16:36;6.70;;;2.08;;
33413;SDS011;60055;41.884;12.534;2024-02-21T11:19:05;5.68;;;1.67;;
33413;SDS011;60055;41.884;12.534;2024-02-21T11:21:35;14.25;;;2.47;;
33413;SDS011;60055;41.884;12.534;2024-02-21T11:24:01;4.78;;;1.92;;
33413;SDS011;60055;41.884;12.534;2024-02-21T11:26:28;4.35;;;1.50;;
33413;SDS011;60055;41.884;12.534;2024-02-21T11:29:00;2.78;;;1.30;;
33413;SDS011;60055;41.884;12.534;2024-02-21T11:31:38;3.20;;;1.40;;
33413;SDS011;60055;41.884;12.534;2024-02-21T11:34:08;3.50;;;1.52;;
33413;SDS011;60055;41.884;12.534;2024-02-21T11:36:34;4.70;;;1.63;;
33413;SDS011;60055;41.884;12.534;2024-02-21T11:39:03;3.63;;;1.60;;
33413;SDS011;60055;41.884;12.534;2024-02-21T11:41:30;5.40;;;1.48;;
33413;SDS011;60055;41.884;12.534;2024-02-21T11:43:56;4.00;;;1.60;;
33413;SDS011;60055;41.884;12.534;2024-02-21T11:46:21;2.78;;;1.20;;
33413;SDS011;60055;41.884;12.534;2024-02-21T11:48:46;4.10;;;1.30;;
33413;SDS011;60055;41.884;12.534;2024-02-21T11:51:21;2.88;;;1.50;;
33413;SDS011;60055;41.884;12.534;2024-02-21T11:53:50;3.15;;;1.55;;
33413;SDS011;60055;41.884;12.534;2024-02-21T11:56:17;2.00;;;1.25;;
33413;SDS011;60055;41.884;12.534;2024-02-21T11:58:43;5.80;;;1.20;;
33413;SDS011;60055;41.884;12.534;2024-02-21T12:01:08;2.85;;;1.88;;
33413;SDS011;60055;41.884;12.534;2024-02-21T12:03:34;4.65;;;1.95;;
33413;SDS011;60055;41.884;12.534;2024-02-21T12:06:03;3.47;;;1.38;;
33413;SDS011;60055;41.884;12.534;2024-02-21T12:08:44;2.50;;;1.10;;
33413;SDS011;60055;41.884;12.534;2024-02-21T12:11:43;3.70;;;1.10;;
33413;SDS011;60055;41.884;12.534;2024-02-21T12:14:02;2.58;;;1.38;;
33413;SDS011;60055;41.884;12.534;2024-02-21T12:16:30;3.80;;;1.38;;
33413;SDS011;60055;41.884;12.534;2024-02-21T12:18:59;1.77;;;1.00;;
33413;SDS011;60055;41.884;12.534;2024-02-21T12:21:32;2.13;;;1.30;;
33413;SDS011;60055;41.884;12.534;2024-02-21T12:24:11;1.48;;;0.85;;
33413;SDS011;60055;41.884;12.534;2024-02-21T12:26:49;2.13;;;1.20;;
33413;SDS011;60055;41.884;12.534;2024-02-21T12:29:17;2.85;;;1.40;;
33413;SDS011;60055;41.884;12.534;2024-02-21T12:31:42;6.30;;;1.50;;
33413;SDS011;60055;41.884;12.534;2024-02-21T12:34:08;4.82;;;1.80;;
33413;SDS011;60055;41.884;12.534;2024-02-21T12:36:36;2.58;;;1.30;;
33413;SDS011;60055;41.884;12.534;2024-02-21T12:39:07;4.53;;;1.98;;
33413;SDS011;60055;41.884;12.534;2024-02-21T12:41:33;3.60;;;1.60;;
33413;SDS011;60055;41.884;12.534;2024-02-21T12:44:00;3.92;;;1.40;;
33413;SDS011;60055;41.884;12.534;2024-02-21T12:46:25;4.13;;;1.40;;
33413;SDS011;60055;41.884;12.534;2024-02-21T12:48:51;1.70;;;1.15;;
33413;SDS011;60055;41.884;12.534;2024-02-21T12:51:16;6.78;;;1.63;;
33413;SDS011;60055;41.884;12.534;2024-02-21T12:54:09;3.08;;;1.42;;
33413;SDS011;60055;41.884;12.534;2024-02-21T12:57:10;2.70;;;1.45;;
33413;SDS011;60055;41.884;12.534;2024-02-21T13:10:08;6.63;;;1.60;;
33413;SDS011;60055;41.884;12.534;2024-02-21T13:19:52;4.43;;;1.58;;
33413;SDS011;60055;41.884;12.534;2024-02-21T13:22:17;3.25;;;1.40;;
33413;SDS011;60055;41.884;12.534;2024-02-21T13:24:48;5.50;;;1.67;;
33413;SDS011;60055;41.884;12.534;2024-02-21T13:27:45;7.47;;;1.80;;
33413;SDS011;60055;41.884;12.534;2024-02-21T13:30:31;5.00;;;1.58;;
33413;SDS011;60055;41.884;12.534;2024-02-21T13:37:16;2.30;;;1.33;;
33413;SDS011;60055;41.884;12.534;2024-02-21T13:53:32;30.83;;;4.57;;
33413;SDS011;60055;41.884;12.534;2024-02-21T14:20:34;2.90;;;1.48;;
33413;SDS011;60055;41.884;12.534;2024-02-21T14:24:16;4.40;;;1.77;;
33413;SDS011;60055;41.884;12.534;2024-02-21T14:36:54;2.83;;;1.40;;
33413;SDS011;60055;41.884;12.534;2024-02-21T14:51:53;9.07;;;2.20;;
33413;SDS011;60055;41.884;12.534;2024-02-21T14:54:49;2.58;;;1.58;;
33413;SDS011;60055;41.884;12.534;2024-02-21T14:57:47;3.13;;;1.50;;
33413;SDS011;60055;41.884;12.534;2024-02-21T15:03:16;8.75;;;1.67;;
33413;SDS011;60055;41.884;12.534;2024-02-21T15:06:12;4.60;;;1.60;;
33413;SDS011;60055;41.884;12.534;2024-02-21T15:12:43;3.88;;;1.80;;
33413;SDS011;60055;41.884;12.534;2024-02-21T15:15:57;5.65;;;2.15;;
33413;SDS011;60055;41.884;12.534;2024-02-21T15:31:19;4.55;;;2.20;;
33413;SDS011;60055;41.884;12.534;2024-02-21T15:34:21;5.03;;;2.10;;
33413;SDS011;60055;41.884;12.534;2024-02-21T15:44:05;5.05;;;2.28;;
33413;SDS011;60055;41.884;12.534;2024-02-21T15:49:57;6.25;;;2.05;;
33413;SDS011;60055;41.884;12.534;2024-02-21T16:03:36;5.32;;;2.40;;
33413;SDS011;60055;41.884;12.534;2024-02-21T16:06:13;12.55;;;5.72;;
33413;SDS011;60055;41.884;12.534;2024-02-21T16:16:11;4.69;;;2.13;;
33413;SDS011;60055;41.884;12.534;2024-02-21T16:26:09;5.55;;;2.33;;
33413;SDS011;60055;41.884;12.534;2024-02-21T16:29:29;7.60;;;2.58;;
33413;SDS011;60055;41.884;12.534;2024-02-21T16:32:20;3.28;;;2.05;;
33413;SDS011;60055;41.884;12.534;2024-02-21T16:35:12;3.33;;;2.20;;
33413;SDS011;60055;41.884;12.534;2024-02-21T16:41:35;4.80;;;2.45;;
33413;SDS011;60055;41.884;12.534;2024-02-21T16:45:23;11.82;;;2.70;;
33413;SDS011;60055;41.884;12.534;2024-02-21T16:58:20;10.80;;;2.73;;
33413;SDS011;60055;41.884;12.534;2024-02-21T17:07:51;8.65;;;4.50;;
33413;SDS011;60055;41.884;12.534;2024-02-21T17:10:43;7.22;;;3.85;;
33413;SDS011;60055;41.884;12.534;2024-02-21T17:20:58;12.27;;;3.95;;
33413;SDS011;60055;41.884;12.534;2024-02-21T17:30:02;6.10;;;3.42;;
33413;SDS011;60055;41.884;12.534;2024-02-21T17:32:29;10.23;;;3.67;;
33413;SDS011;60055;41.884;12.534;2024-02-21T17:41:39;8.88;;;3.50;;
33413;SDS011;60055;41.884;12.534;2024-02-21T17:44:04;9.18;;;3.97;;
33413;SDS011;60055;41.884;12.534;2024-02-21T17:46:33;9.27;;;3.70;;
33413;SDS011;60055;41.884;12.534;2024-02-21T17:48:58;11.27;;;3.97;;